Time;durP1;ratioP1;P1;durP2;ratioP2;P2;SDS_P1;SDS_P2;PMS_P1;PMS_P2;Temp;Humidity;BMP_temperature;BMP_pressure;BME280_temperature;BME280_humidity;BME280_pressure;Samples;Min_cycle;Max_cycle;Signal;HPM_P1;HPM_P2
2023/05/12 00:02:06;;;;;;;28.10;14.65;;;13.00;99.90;;;;;;5135638;27;20263;-72
2023/05/12 00:04:32;;;;;;;28.27;12.98;;;12.90;99.90;;;;;;5135918;27;20199;-72
2023/05/12 00:06:58;;;;;;;25.20;14.50;;;12.90;99.90;;;;;;5135519;27;20240;-72
2023/05/12 00:09:24;;;;;;;20.83;11.93;;;13.00;99.90;;;;;;5134285;27;20180;-72
2023/05/12 00:11:49;;;;;;;25.02;12.80;;;12.90;99.90;;;;;;5133990;27;20199;-72
2023/05/12 00:14:15;;;;;;;21.92;11.48;;;12.90;99.90;;;;;;5135223;27;20217;-72
2023/05/12 00:16:42;;;;;;;19.95;10.57;;;12.80;99.90;;;;;;5135033;27;20273;-72
2023/05/12 00:19:08;;;;;;;17.15;9.68;;;12.80;99.90;;;;;;5135164;27;20168;-72
2023/05/12 00:21:34;;;;;;;15.20;9.70;;;12.80;99.90;;;;;;5134867;27;20204;-72
2023/05/12 00:23:59;;;;;;;15.55;9.82;;;12.80;99.90;;;;;;5133289;27;20176;-72
2023/05/12 00:26:25;;;;;;;13.73;8.90;;;12.80;99.90;;;;;;5136646;27;20216;-72
2023/05/12 00:28:51;;;;;;;11.95;8.10;;;12.70;99.90;;;;;;5133823;27;20172;-72
2023/05/12 00:31:17;;;;;;;13.50;8.93;;;12.80;99.90;;;;;;5133846;27;20195;-72
2023/05/12 00:33:43;;;;;;;12.82;8.13;;;12.70;99.90;;;;;;5134106;27;20566;-72
2023/05/12 00:36:09;;;;;;;14.13;8.43;;;12.70;99.90;;;;;;5121165;27;20705;-70
2023/05/12 00:38:36;;;;;;;12.38;7.57;;;12.70;99.90;;;;;;5114675;28;20212;-70
2023/05/12 00:41:03;;;;;;;12.77;7.35;;;12.70;99.90;;;;;;5113494;28;20204;-71
2023/05/12 00:43:30;;;;;;;11.23;7.63;;;12.70;99.90;;;;;;5114249;28;20169;-70
2023/05/12 00:45:56;;;;;;;16.33;7.85;;;12.70;99.90;;;;;;5112968;28;20528;-70
2023/05/12 00:48:22;;;;;;;12.52;8.13;;;12.60;99.90;;;;;;5114675;28;20168;-70
2023/05/12 00:50:48;;;;;;;12.88;8.32;;;12.60;99.90;;;;;;5114746;28;20635;-70
2023/05/12 00:53:14;;;;;;;14.07;8.30;;;12.60;99.90;;;;;;5113992;28;20279;-70
2023/05/12 00:55:41;;;;;;;12.98;8.52;;;12.60;99.90;;;;;;5114236;28;20168;-70
2023/05/12 00:58:07;;;;;;;16.50;8.98;;;12.60;99.90;;;;;;5114304;28;20530;-70
2023/05/12 01:00:33;;;;;;;11.15;8.07;;;12.60;99.90;;;;;;5112618;28;20583;-71
2023/05/12 01:02:58;;;;;;;13.35;7.95;;;12.60;99.90;;;;;;5112556;28;20208;-70
2023/05/12 01:05:32;;;;;;;9.85;7.22;;;12.60;99.90;;;;;;5106173;28;20172;-71
2023/05/12 01:08:00;;;;;;;15.18;7.55;;;12.60;99.90;;;;;;5094094;28;20182;-71
2023/05/12 01:10:29;;;;;;;17.50;8.43;;;12.60;99.90;;;;;;5092528;28;20272;-71
2023/05/12 01:12:55;;;;;;;10.77;7.53;;;12.60;99.90;;;;;;5092564;28;20197;-71
2023/05/12 01:15:20;;;;;;;15.15;8.70;;;12.50;99.90;;;;;;5092773;28;20234;-70
2023/05/12 01:17:55;;;;;;;12.55;8.35;;;12.50;99.90;;;;;;5092097;28;20180;-70
2023/05/12 01:20:24;;;;;;;14.77;8.98;;;12.50;99.90;;;;;;5093699;28;20192;-70
2023/05/12 01:22:50;;;;;;;12.80;8.38;;;12.50;99.90;;;;;;5092139;28;20220;-70
2023/05/12 01:25:18;;;;;;;16.05;9.18;;;12.50;99.90;;;;;;5093292;28;20166;-70
2023/05/12 01:27:45;;;;;;;16.25;9.18;;;12.50;99.90;;;;;;5092304;28;20603;-70
2023/05/12 01:30:15;;;;;;;17.75;9.15;;;12.50;99.90;;;;;;5093384;28;20165;-70
2023/05/12 01:32:41;;;;;;;19.35;9.68;;;12.50;99.90;;;;;;5092131;28;20729;-70
2023/05/12 01:35:07;;;;;;;14.52;9.55;;;12.50;99.90;;;;;;5104152;27;20183;-70
2023/05/12 01:37:33;;;;;;;15.57;8.60;;;12.50;99.90;;;;;;5137981;27;20536;-70
2023/05/12 01:39:58;;;;;;;18.13;10.32;;;12.50;99.90;;;;;;5138672;27;20199;-70
2023/05/12 01:42:24;;;;;;;16.35;9.15;;;12.50;99.90;;;;;;5136874;27;20785;-70
2023/05/12 01:44:50;;;;;;;17.25;9.23;;;12.60;99.90;;;;;;5137947;27;20175;-70
2023/05/12 01:47:16;;;;;;;18.13;9.52;;;12.60;99.90;;;;;;5137880;27;20651;-70
2023/05/12 01:49:41;;;;;;;22.70;11.45;;;12.60;99.90;;;;;;5137939;27;20164;-70
2023/05/12 01:52:07;;;;;;;19.13;11.63;;;12.60;99.90;;;;;;5137814;27;20192;-70
2023/05/12 01:54:33;;;;;;;14.63;10.00;;;12.60;99.90;;;;;;5136390;27;20172;-70
2023/05/12 01:56:59;;;;;;;22.48;11.43;;;12.60;99.90;;;;;;5137739;27;20228;-70
2023/05/12 01:59:25;;;;;;;23.40;11.43;;;12.60;99.90;;;;;;5137801;27;20188;-70
2023/05/12 02:01:51;;;;;;;26.95;13.05;;;12.60;99.90;;;;;;5136377;27;20243;-71
2023/05/12 02:04:16;;;;;;;20.23;11.68;;;12.60;99.90;;;;;;5137966;27;20595;-70
2023/05/12 02:06:42;;;;;;;23.02;12.63;;;12.60;99.90;;;;;;5138449;27;20195;-70
2023/05/12 02:09:08;;;;;;;25.67;13.52;;;12.60;99.90;;;;;;5137591;27;20190;-70
2023/05/12 02:11:34;;;;;;;28.48;13.75;;;12.60;99.90;;;;;;5137237;27;20219;-70
2023/05/12 02:14:00;;;;;;;27.20;12.75;;;12.60;99.90;;;;;;5138782;27;20611;-70
2023/05/12 02:16:25;;;;;;;21.67;11.48;;;12.60;99.90;;;;;;5138421;27;20670;-71
2023/05/12 02:18:51;;;;;;;22.27;12.68;;;12.50;99.90;;;;;;5136378;27;20554;-70
2023/05/12 02:21:17;;;;;;;19.35;11.15;;;12.50;99.90;;;;;;5136297;27;20203;-71
2023/05/12 02:23:42;;;;;;;17.58;10.52;;;12.60;99.90;;;;;;5136084;27;20182;-71
2023/05/12 02:26:08;;;;;;;18.95;11.40;;;12.60;99.90;;;;;;5136004;27;20187;-71
2023/05/12 02:28:35;;;;;;;16.30;10.20;;;12.60;99.90;;;;;;5137772;27;20608;-71
2023/05/12 02:31:01;;;;;;;15.40;9.68;;;12.50;99.90;;;;;;5137152;27;20255;-72
2023/05/12 02:33:26;;;;;;;16.30;9.65;;;12.40;99.90;;;;;;5136790;27;20606;-71
2023/05/12 02:35:52;;;;;;;13.57;8.77;;;12.40;99.90;;;;;;5137287;27;20262;-72
2023/05/12 02:38:18;;;;;;;16.25;8.90;;;12.40;99.90;;;;;;5136941;27;20176;-72
2023/05/12 02:40:45;;;;;;;15.48;8.57;;;12.40;99.90;;;;;;5135595;27;20202;-72
2023/05/12 02:43:11;;;;;;;14.13;8.27;;;12.30;99.90;;;;;;5137537;27;20659;-72
2023/05/12 02:45:37;;;;;;;13.25;8.02;;;12.30;99.90;;;;;;5137499;27;20160;-72
2023/05/12 02:48:03;;;;;;;12.57;7.85;;;12.30;99.90;;;;;;5135331;27;20175;-72
2023/05/12 02:50:29;;;;;;;17.33;7.50;;;12.30;99.90;;;;;;5137308;27;20179;-72
2023/05/12 02:52:55;;;;;;;10.02;7.28;;;12.30;99.90;;;;;;5136779;27;20541;-72
2023/05/12 02:55:20;;;;;;;11.82;7.25;;;12.30;99.90;;;;;;5136741;27;20175;-72
2023/05/12 02:57:46;;;;;;;15.15;8.00;;;12.40;99.90;;;;;;5136957;27;20178;-72
2023/05/12 03:00:12;;;;;;;10.15;6.88;;;12.40;99.90;;;;;;5137010;27;20604;-72
2023/05/12 03:02:38;;;;;;;10.45;6.95;;;12.30;99.90;;;;;;5136241;27;20206;-71
2023/05/12 03:05:05;;;;;;;11.50;7.47;;;12.30;99.90;;;;;;5136412;27;20175;-71
2023/05/12 03:07:31;;;;;;;10.75;7.00;;;12.30;99.90;;;;;;5136435;27;20164;-71
2023/05/12 03:09:57;;;;;;;10.63;7.18;;;12.30;99.90;;;;;;5135120;27;20184;-72
2023/05/12 03:12:23;;;;;;;7.85;6.70;;;12.30;99.90;;;;;;5136393;27;20241;-72
2023/05/12 03:14:50;;;;;;;10.43;7.05;;;12.20;99.90;;;;;;5134827;27;20176;-73
2023/05/12 03:17:16;;;;;;;9.95;6.75;;;12.20;99.90;;;;;;5135144;27;20266;-73
2023/05/12 03:19:42;;;;;;;7.82;6.38;;;12.20;99.90;;;;;;5135241;27;20228;-71
2023/05/12 03:22:08;;;;;;;9.18;6.10;;;12.20;99.90;;;;;;5136346;27;20675;-71
2023/05/12 03:24:34;;;;;;;8.70;6.05;;;12.20;99.90;;;;;;5136354;27;20197;-71
2023/05/12 03:27:00;;;;;;;9.00;6.45;;;12.20;99.90;;;;;;5134750;27;20179;-71
2023/05/12 03:29:25;;;;;;;9.57;6.22;;;12.20;99.90;;;;;;5136095;27;20172;-71
2023/05/12 03:31:52;;;;;;;9.57;6.55;;;12.20;99.90;;;;;;5135741;27;20246;-71
2023/05/12 03:34:18;;;;;;;9.05;6.57;;;12.20;99.90;;;;;;5136466;27;20207;-71
2023/05/12 03:36:44;;;;;;;9.15;6.70;;;12.20;99.90;;;;;;5135873;27;20210;-71
2023/05/12 03:39:11;;;;;;;10.73;6.35;;;12.20;99.90;;;;;;5135795;27;20171;-71
2023/05/12 03:41:37;;;;;;;9.77;6.93;;;12.20;99.90;;;;;;5135481;27;20211;-71
2023/05/12 03:44:04;;;;;;;9.55;6.60;;;12.10;99.90;;;;;;5135788;27;20172;-71
2023/05/12 03:46:30;;;;;;;9.43;6.70;;;12.10;99.90;;;;;;5134321;27;20589;-71
2023/05/12 03:48:57;;;;;;;11.52;7.20;;;12.10;99.90;;;;;;5135651;27;20266;-71
2023/05/12 03:51:24;;;;;;;8.65;7.05;;;12.10;99.90;;;;;;5135621;27;20187;-71
2023/05/12 03:53:50;;;;;;;12.38;7.70;;;12.00;99.90;;;;;;5135963;27;20671;-71
2023/05/12 03:56:15;;;;;;;13.05;8.93;;;12.00;99.90;;;;;;5133950;27;20205;-71
2023/05/12 03:58:42;;;;;;;11.05;7.82;;;12.00;99.90;;;;;;5134975;27;20168;-71
2023/05/12 04:01:08;;;;;;;12.15;8.65;;;12.00;99.90;;;;;;5135220;27;20552;-71
2023/05/12 04:03:33;;;;;;;14.70;9.48;;;12.00;99.90;;;;;;5134059;27;20168;-71
2023/05/12 04:06:03;;;;;;;13.50;8.95;;;12.00;99.90;;;;;;5134037;27;20190;-71
2023/05/12 04:08:29;;;;;;;13.95;8.68;;;12.00;99.90;;;;;;5135542;27;20296;-71
2023/05/12 04:10:57;;;;;;;12.98;9.02;;;12.00;99.90;;;;;;5135110;27;20176;-71
2023/05/12 04:13:23;;;;;;;14.57;9.07;;;12.00;99.90;;;;;;5133828;27;20262;-71
2023/05/12 04:15:49;;;;;;;14.50;8.82;;;11.90;99.90;;;;;;5135279;27;20531;-71
2023/05/12 04:18:16;;;;;;;12.88;8.75;;;12.00;99.90;;;;;;5135132;27;20164;-71
2023/05/12 04:20:43;;;;;;;10.52;7.85;;;12.00;99.90;;;;;;5135539;27;20581;-70
2023/05/12 04:23:09;;;;;;;12.70;7.85;;;12.00;99.90;;;;;;5133557;27;20196;-70
2023/05/12 04:25:39;;;;;;;9.15;7.60;;;12.00;99.90;;;;;;5133563;27;20224;-70
2023/05/12 04:28:05;;;;;;;10.43;7.20;;;12.00;99.90;;;;;;5133618;27;20167;-70
2023/05/12 04:30:31;;;;;;;8.90;7.45;;;12.00;99.90;;;;;;5133440;27;20187;-70
2023/05/12 04:32:57;;;;;;;9.68;7.50;;;12.00;99.90;;;;;;5134489;27;20268;-70
2023/05/12 04:35:23;;;;;;;10.27;7.25;;;12.00;99.90;;;;;;5133208;27;20678;-71
2023/05/12 04:37:49;;;;;;;12.68;8.35;;;12.00;99.90;;;;;;5134562;27;20252;-70
2023/05/12 04:40:15;;;;;;;9.57;7.32;;;12.00;99.90;;;;;;5133081;27;20206;-70
2023/05/12 04:42:41;;;;;;;9.48;7.30;;;12.00;99.90;;;;;;5133156;27;20275;-70
2023/05/12 04:45:08;;;;;;;12.85;7.53;;;12.00;99.90;;;;;;5134850;27;20160;-70
2023/05/12 04:47:34;;;;;;;9.60;6.82;;;12.00;99.90;;;;;;5134283;27;20530;-70
2023/05/12 04:50:00;;;;;;;9.05;7.63;;;12.00;99.90;;;;;;5134408;27;20175;-70
2023/05/12 04:52:25;;;;;;;9.05;6.57;;;12.00;99.90;;;;;;5132984;28;20683;-70
2023/05/12 04:55:05;;;;;;;10.60;7.13;;;12.00;99.90;;;;;;5134831;27;20551;-68
2023/05/12 04:57:31;;;;;;;9.05;6.80;;;12.00;99.90;;;;;;5134400;28;20293;-70
2023/05/12 04:59:58;;;;;;;8.30;6.88;;;12.10;99.90;;;;;;5134476;27;20240;-70
2023/05/12 05:02:24;;;;;;;9.05;6.43;;;12.10;99.90;;;;;;5132698;28;20263;-71
2023/05/12 05:04:53;;;;;;;10.38;6.95;;;12.20;99.90;;;;;;5133582;27;20168;-71
2023/05/12 05:07:21;;;;;;;7.95;6.43;;;12.20;99.90;;;;;;5115269;28;20187;-71
2023/05/12 05:09:46;;;;;;;10.07;7.60;;;12.30;99.90;;;;;;5117218;28;20172;-71
2023/05/12 05:12:12;;;;;;;11.02;7.30;;;12.30;99.90;;;;;;5118619;28;20196;-71
2023/05/12 05:14:38;;;;;;;9.95;6.60;;;12.30;99.90;;;;;;5120726;28;20226;-70
2023/05/12 05:17:06;;;;;;;10.73;7.30;;;12.30;99.90;;;;;;5118474;28;20259;-71
2023/05/12 05:19:32;;;;;;;12.32;7.93;;;12.40;99.90;;;;;;5121221;27;20156;-71
2023/05/12 05:21:58;;;;;;;12.35;8.18;;;12.30;99.90;;;;;;5119701;28;20665;-70
2023/05/12 05:24:24;;;;;;;10.05;7.70;;;12.30;99.90;;;;;;5119852;28;20256;-72
2023/05/12 05:26:50;;;;;;;11.35;7.95;;;12.30;99.90;;;;;;5117613;28;20172;-74
2023/05/12 05:29:16;;;;;;;10.10;7.55;;;12.40;99.90;;;;;;5118044;28;20555;-73
2023/05/12 05:31:41;;;;;;;9.05;7.20;;;12.40;99.90;;;;;;5118590;28;20193;-73
2023/05/12 05:34:07;;;;;;;10.43;8.27;;;12.40;99.90;;;;;;5117810;28;20176;-72
2023/05/12 05:36:33;;;;;;;9.85;7.85;;;12.50;99.90;;;;;;5099480;28;20181;-73
2023/05/12 05:38:58;;;;;;;8.82;7.07;;;12.50;99.90;;;;;;5097982;28;20714;-71
2023/05/12 05:41:24;;;;;;;9.25;7.05;;;12.60;99.90;;;;;;5098443;28;20209;-73
2023/05/12 05:43:50;;;;;;;8.13;6.95;;;12.70;99.90;;;;;;5097952;28;20173;-74
2023/05/12 05:46:17;;;;;;;11.18;7.25;;;12.70;99.90;;;;;;5096889;28;20183;-73
2023/05/12 05:48:43;;;;;;;8.20;7.20;;;12.80;99.90;;;;;;5098191;28;20181;-73
2023/05/12 05:51:10;;;;;;;10.65;7.95;;;12.80;99.90;;;;;;5097181;28;20697;-72
2023/05/12 05:53:36;;;;;;;12.60;7.03;;;12.90;99.90;;;;;;5096656;28;20165;-71
2023/05/12 05:56:02;;;;;;;9.55;7.43;;;12.90;99.90;;;;;;5096258;28;20686;-71
2023/05/12 05:58:27;;;;;;;9.48;7.15;;;12.90;99.90;;;;;;5095349;28;20177;-71
2023/05/12 06:00:53;;;;;;;10.35;6.70;;;12.90;99.90;;;;;;5095247;28;20205;-71
2023/05/12 06:03:19;;;;;;;8.48;6.90;;;12.90;99.90;;;;;;5096583;28;20665;-71
2023/05/12 06:05:45;;;;;;;10.75;7.20;;;12.90;99.90;;;;;;5116967;27;20531;-70
2023/05/12 06:08:12;;;;;;;8.63;6.32;;;13.00;99.90;;;;;;5136134;27;20655;-70
2023/05/12 06:10:38;;;;;;;11.07;6.85;;;12.90;99.90;;;;;;5137682;27;20195;-71
2023/05/12 06:13:04;;;;;;;7.30;6.35;;;12.90;99.90;;;;;;5135871;27;20252;-71
2023/05/12 06:15:29;;;;;;;7.30;6.40;;;12.80;99.90;;;;;;5136013;27;20180;-71
2023/05/12 06:17:55;;;;;;;8.20;6.60;;;12.80;99.90;;;;;;5137260;27;20228;-71
2023/05/12 06:20:22;;;;;;;8.40;6.05;;;12.80;99.90;;;;;;5135870;27;20203;-71
2023/05/12 06:22:48;;;;;;;10.38;6.22;;;12.70;99.90;;;;;;5136634;27;20192;-71
2023/05/12 06:25:14;;;;;;;8.30;6.55;;;12.70;99.90;;;;;;5137001;27;20178;-70
2023/05/12 06:27:40;;;;;;;8.10;5.85;;;12.60;99.90;;;;;;5137048;27;20636;-70
2023/05/12 06:30:06;;;;;;;8.40;6.53;;;12.60;99.90;;;;;;5137340;27;20176;-70
2023/05/12 06:32:32;;;;;;;8.20;6.55;;;12.60;99.90;;;;;;5137244;27;20667;-71
2023/05/12 06:34:58;;;;;;;8.88;6.28;;;12.50;99.90;;;;;;5135756;27;20277;-71
2023/05/12 06:37:24;;;;;;;7.68;6.25;;;12.60;99.90;;;;;;5137671;27;20214;-71
2023/05/12 06:39:49;;;;;;;8.18;6.32;;;12.60;99.90;;;;;;5137626;27;20179;-70
2023/05/12 06:42:15;;;;;;;7.32;6.15;;;12.60;99.90;;;;;;5135738;27;20192;-71
2023/05/12 06:44:41;;;;;;;7.47;5.97;;;12.60;99.90;;;;;;5136954;27;20171;-71
2023/05/12 06:47:07;;;;;;;7.22;6.53;;;12.60;99.90;;;;;;5137139;27;20528;-71
2023/05/12 06:49:35;;;;;;;7.25;6.32;;;12.60;99.90;;;;;;5137893;27;20628;-70
2023/05/12 06:52:02;;;;;;;8.50;6.35;;;12.70;99.90;;;;;;5137601;27;20272;-71
2023/05/12 06:54:28;;;;;;;7.07;6.20;;;12.70;99.90;;;;;;5136540;27;20175;-70
2023/05/12 06:56:53;;;;;;;8.63;6.25;;;12.70;99.90;;;;;;5136016;27;20240;-71
2023/05/12 06:59:19;;;;;;;7.65;6.05;;;12.70;99.90;;;;;;5136044;27;20576;-70
2023/05/12 07:01:45;;;;;;;8.45;6.55;;;12.80;99.90;;;;;;5136601;27;20223;-70
2023/05/12 07:04:10;;;;;;;9.18;6.90;;;12.90;99.90;;;;;;5136436;27;20171;-70
2023/05/12 07:06:36;;;;;;;7.50;6.53;;;12.90;99.90;;;;;;5135012;27;20202;-71
2023/05/12 07:09:03;;;;;;;8.13;6.07;;;12.90;99.90;;;;;;5136284;27;20207;-70
2023/05/12 07:11:28;;;;;;;8.48;6.00;;;13.00;99.90;;;;;;5134905;27;20192;-70
2023/05/12 07:13:54;;;;;;;8.57;6.80;;;13.10;99.90;;;;;;5136222;27;20176;-70
2023/05/12 07:16:20;;;;;;;8.98;6.35;;;13.10;99.90;;;;;;5134781;27;20176;-70
2023/05/12 07:18:46;;;;;;;8.70;6.00;;;13.10;99.90;;;;;;5135939;27;20168;-71
2023/05/12 07:21:12;;;;;;;7.32;6.47;;;13.20;99.90;;;;;;5128380;27;20188;-72
2023/05/12 07:23:39;;;;;;;6.75;6.05;;;13.20;99.90;;;;;;5101987;28;20184;-71
2023/05/12 07:26:06;;;;;;;6.57;5.80;;;13.30;99.90;;;;;;5115610;28;20164;-70
2023/05/12 07:28:36;;;;;;;7.63;6.15;;;13.20;99.90;;;;;;5115213;28;20176;-70
2023/05/12 07:31:06;;;;;;;7.55;5.90;;;13.30;99.90;;;;;;5115890;28;20239;-71
2023/05/12 07:33:33;;;;;;;6.43;5.82;;;13.30;99.90;;;;;;5115045;28;20275;-71
2023/05/12 07:35:59;;;;;;;7.80;5.90;;;13.40;99.90;;;;;;5127821;27;20179;-73
2023/05/12 07:38:25;;;;;;;7.75;5.68;;;13.50;99.90;;;;;;5136058;27;20156;-73
2023/05/12 07:40:51;;;;;;;7.10;5.53;;;13.70;99.90;;;;;;5134270;27;20199;-73
2023/05/12 07:43:17;;;;;;;6.45;5.57;;;13.80;99.90;;;;;;5134372;27;20187;-73
2023/05/12 07:45:44;;;;;;;7.32;5.70;;;13.90;99.90;;;;;;5135624;27;20596;-73
2023/05/12 07:48:12;;;;;;;6.03;5.43;;;14.00;99.90;;;;;;5134134;27;20210;-73
2023/05/12 07:50:38;;;;;;;9.32;5.28;;;14.10;99.90;;;;;;5134427;27;20545;-73
2023/05/12 07:53:04;;;;;;;6.10;5.40;;;14.20;99.90;;;;;;5135322;27;20188;-73
2023/05/12 07:55:34;;;;;;;6.90;5.05;;;14.30;99.90;;;;;;5135509;27;20518;-73
2023/05/12 07:58:00;;;;;;;5.07;4.60;;;14.40;99.90;;;;;;5135248;27;20168;-73
2023/05/12 08:00:26;;;;;;;6.85;4.72;;;14.60;99.90;;;;;;5135681;27;20270;-73
2023/05/12 08:02:53;;;;;;;6.95;5.00;;;14.70;99.90;;;;;;5134799;27;20663;-73
2023/05/12 08:05:18;;;;;;;5.90;4.75;;;14.80;99.90;;;;;;5134106;27;20184;-73
2023/05/12 08:07:45;;;;;;;6.72;4.40;;;14.90;99.90;;;;;;5134092;27;20182;-73
2023/05/12 08:10:14;;;;;;;6.65;5.00;;;14.90;99.90;;;;;;5135354;27;20249;-73
2023/05/12 08:12:40;;;;;;;6.20;4.38;;;14.90;99.90;;;;;;5133699;27;20697;-73
2023/05/12 08:15:08;;;;;;;7.30;4.10;;;14.90;99.90;;;;;;5135000;27;20164;-73
2023/05/12 08:17:34;;;;;;;4.88;4.38;;;14.90;99.90;;;;;;5133743;27;20201;-72
2023/05/12 08:20:00;;;;;;;4.93;4.43;;;15.00;99.90;;;;;;5135144;27;20199;-73
2023/05/12 08:22:25;;;;;;;4.80;4.40;;;15.00;99.90;;;;;;5133686;27;20558;-73
2023/05/12 08:24:51;;;;;;;4.82;4.32;;;15.00;99.90;;;;;;5135125;27;20164;-69
2023/05/12 08:27:17;;;;;;;6.45;4.30;;;15.00;99.90;;;;;;5134737;27;20178;-70
2023/05/12 08:29:43;;;;;;;5.07;4.57;;;15.10;99.90;;;;;;5133333;27;20707;-70
2023/05/12 08:32:09;;;;;;;4.57;4.10;;;15.20;99.90;;;;;;5134658;27;20293;-69
2023/05/12 08:34:35;;;;;;;4.72;4.20;;;15.30;99.90;;;;;;5134552;27;20155;-70
2023/05/12 08:37:01;;;;;;;4.68;4.05;;;15.40;99.90;;;;;;5134607;27;20628;-69
2023/05/12 08:39:29;;;;;;;6.20;4.38;;;15.50;99.90;;;;;;5133276;27;20193;-69
2023/05/12 08:42:32;;;;;;;5.40;4.43;;;15.60;99.90;;;;;;5134447;27;20196;-69
2023/05/12 08:44:59;;;;;;;5.72;4.40;;;15.70;99.90;;;;;;5134322;27;20275;-69
2023/05/12 08:47:26;;;;;;;4.00;3.67;;;15.70;99.90;;;;;;5134871;27;20155;-70
2023/05/12 08:50:03;;;;;;;5.07;4.30;;;15.70;99.90;;;;;;5133186;27;20536;-69
2023/05/12 08:52:31;;;;;;;4.78;4.07;;;15.80;99.90;;;;;;5133174;28;20187;-69
2023/05/12 08:54:58;;;;;;;5.22;3.83;;;15.90;99.90;;;;;;5134314;27;20600;-69
2023/05/12 08:57:24;;;;;;;6.40;4.13;;;16.00;99.90;;;;;;5133149;28;20191;-69
2023/05/12 08:59:55;;;;;;;4.75;4.30;;;16.00;99.90;;;;;;5132943;28;20175;-69
2023/05/12 09:02:22;;;;;;;6.78;4.55;;;16.00;99.90;;;;;;5134220;27;20210;-70
2023/05/12 09:04:53;;;;;;;4.25;3.85;;;16.10;99.90;;;;;;5133001;28;20179;-69
2023/05/12 09:07:21;;;;;;;6.10;4.20;;;16.30;99.90;;;;;;5134614;27;20162;-69
2023/05/12 09:09:54;;;;;;;3.95;3.63;;;16.40;99.90;;;;;;5136882;27;20156;-70
2023/05/12 09:12:21;;;;;;;4.30;3.90;;;16.40;99.90;;;;;;5137057;27;20191;-72
2023/05/12 09:15:03;;;;;;;4.47;3.60;;;16.60;99.90;;;;;;5137267;28;20177;-72
2023/05/12 09:17:29;;;;;;;4.47;3.90;;;16.70;99.90;;;;;;5133968;28;20164;-69
2023/05/12 09:19:54;;;;;;;5.85;3.97;;;16.80;99.90;;;;;;5137279;27;20628;-69
2023/05/12 09:22:35;;;;;;;4.50;4.00;;;17.00;99.90;;;;;;5135427;27;20196;-69
2023/05/12 09:25:17;;;;;;;5.13;3.85;;;17.00;99.90;;;;;;5136963;28;20683;-69
2023/05/12 09:27:46;;;;;;;4.88;4.07;;;17.10;99.90;;;;;;5135893;28;20267;-69
2023/05/12 09:30:14;;;;;;;7.07;4.10;;;17.40;99.90;;;;;;5135717;28;20615;-70
2023/05/12 09:32:41;;;;;;;4.32;3.70;;;17.90;99.90;;;;;;5139822;27;20194;-72
2023/05/12 09:35:12;;;;;;;4.80;3.67;;;18.40;99.90;;;;;;5135794;27;20187;-72
2023/05/12 09:37:39;;;;;;;5.38;3.90;;;18.80;99.90;;;;;;5134100;27;20190;-73
2023/05/12 09:40:07;;;;;;;6.78;4.00;;;18.90;99.90;;;;;;5135523;27;20223;-70
2023/05/12 09:42:34;;;;;;;5.07;3.53;;;19.20;99.90;;;;;;5134376;28;20671;-70
2023/05/12 09:45:11;;;;;;;4.80;3.40;;;19.30;99.90;;;;;;5133130;27;20270;-73
2023/05/12 09:47:39;;;;;;;3.85;3.25;;;19.40;99.90;;;;;;5115623;28;20628;-73
2023/05/12 09:50:09;;;;;;;3.90;3.50;;;19.20;99.90;;;;;;5133964;27;20168;-73
2023/05/12 09:52:37;;;;;;;6.05;3.50;;;19.10;99.90;;;;;;5133823;27;20207;-73
2023/05/12 09:55:11;;;;;;;6.28;3.70;;;19.20;99.90;;;;;;5132106;28;20263;-73
2023/05/12 09:57:44;;;;;;;4.05;3.67;;;19.30;99.90;;;;;;5117686;27;20179;-73
2023/05/12 10:00:16;;;;;;;4.15;3.75;;;19.50;99.90;;;;;;5119056;27;20204;-73
2023/05/12 10:02:51;;;;;;;5.35;3.97;;;19.70;99.90;;;;;;5137377;27;20215;-73
2023/05/12 10:05:27;;;;;;;5.30;3.67;;;19.60;99.90;;;;;;5136580;27;20176;-73
2023/05/12 10:08:00;;;;;;;5.00;3.95;;;19.70;99.90;;;;;;5136641;27;20155;-73
2023/05/12 10:10:31;;;;;;;6.63;4.07;;;19.70;99.90;;;;;;5119625;27;20180;-73
2023/05/12 10:13:03;;;;;;;6.03;4.00;;;19.70;99.90;;;;;;5136222;27;20199;-73
2023/05/12 10:15:37;;;;;;;6.00;4.10;;;19.80;99.90;;;;;;5135240;27;20652;-73
2023/05/12 10:18:03;;;;;;;5.65;4.20;;;19.80;99.90;;;;;;5135801;27;20218;-73
2023/05/12 10:20:30;;;;;;;6.65;4.03;;;19.90;99.90;;;;;;5118765;27;20289;-73
2023/05/12 10:23:01;;;;;;;6.28;4.32;;;19.90;99.90;;;;;;5135554;27;20264;-73
2023/05/12 10:25:28;;;;;;;5.63;3.90;;;19.70;99.90;;;;;;5119074;27;20172;-73
2023/05/12 10:27:55;;;;;;;4.75;4.25;;;19.70;99.90;;;;;;5135181;27;20211;-73
2023/05/12 10:30:26;;;;;;;8.38;5.13;;;20.30;99.90;;;;;;5135716;27;20244;-73
2023/05/12 10:33:01;;;;;;;7.18;4.45;;;20.70;99.90;;;;;;5136748;27;20223;-73
2023/05/12 10:35:32;;;;;;;4.80;4.30;;;21.40;99.90;;;;;;5139601;27;20235;-72
2023/05/12 10:38:06;;;;;;;6.20;4.93;;;21.40;9.00;;;;;;5135569;27;20186;-72
2023/05/12 10:40:31;;;;;;;7.55;4.60;;;21.50;1.00;;;;;;5135453;27;20196;-72
2023/05/12 10:43:01;;;;;;;5.53;4.13;;;21.30;1.00;;;;;;5136768;27;20190;-72
2023/05/12 10:45:27;;;;;;;6.18;4.45;;;21.00;1.00;;;;;;5135331;27;20179;-72
2023/05/12 10:48:06;;;;;;;6.13;4.35;;;20.80;30.00;;;;;;5136710;27;20273;-72
2023/05/12 10:50:32;;;;;;;6.63;5.05;;;20.60;16.50;;;;;;5135297;27;20544;-72
2023/05/12 10:52:58;;;;;;;5.93;4.35;;;20.40;23.20;;;;;;5136432;27;20727;-72
2023/05/12 10:55:32;;;;;;;7.20;4.60;;;20.70;99.90;;;;;;5136465;27;20176;-72
2023/05/12 10:58:11;;;;;;;6.18;4.25;;;20.90;24.10;;;;;;5136402;27;20198;-72
2023/05/12 11:00:45;;;;;;;6.90;4.30;;;20.90;77.70;;;;;;5136295;27;20266;-72
2023/05/12 11:03:13;;;;;;;4.03;3.63;;;21.20;40.20;;;;;;5136016;27;20331;-72
2023/05/12 11:05:38;;;;;;;5.93;4.38;;;21.30;1.00;;;;;;5135004;27;20203;-72
2023/05/12 11:08:04;;;;;;;4.53;4.00;;;21.60;1.00;;;;;;5135738;27;20609;-72
2023/05/12 11:10:31;;;;;;;6.70;3.97;;;21.50;1.00;;;;;;5135825;27;20251;-72
2023/05/12 11:12:57;;;;;;;7.38;4.45;;;21.30;1.00;;;;;;5136033;27;20195;-72
2023/05/12 11:15:23;;;;;;;6.47;4.78;;;21.20;1.00;;;;;;5136476;27;20172;-72
2023/05/12 11:17:49;;;;;;;5.25;4.60;;;21.20;1.00;;;;;;5135950;27;20236;-72
2023/05/12 11:20:25;;;;;;;4.57;3.85;;;21.10;1.00;;;;;;5136000;27;20196;-72
2023/05/12 11:22:52;;;;;;;4.72;3.72;;;21.00;1.00;;;;;;5136524;27;20232;-72
2023/05/12 11:25:18;;;;;;;5.57;3.67;;;20.90;1.00;;;;;;5136278;27;20174;-72
2023/05/12 11:27:49;;;;;;;5.53;3.60;;;21.00;1.00;;;;;;5134839;27;20262;-72
2023/05/12 11:30:16;;;;;;;5.93;3.80;;;20.80;1.00;;;;;;5134821;27;20259;-72
2023/05/12 11:32:42;;;;;;;5.78;3.88;;;20.70;1.00;;;;;;5136514;27;20667;-72
2023/05/12 11:35:16;;;;;;;5.10;3.75;;;20.60;1.00;;;;;;5136293;27;20211;-72
2023/05/12 11:37:43;;;;;;;8.70;4.30;;;20.50;1.00;;;;;;5136208;27;20619;-72
2023/05/12 11:40:13;;;;;;;3.88;3.58;;;20.50;1.00;;;;;;5135727;27;20255;-72
2023/05/12 11:42:41;;;;;;;5.47;3.90;;;20.60;1.00;;;;;;5135689;27;20187;-72
2023/05/12 11:45:22;;;;;;;4.80;4.22;;;20.60;1.00;;;;;;5135578;27;20632;-72
2023/05/12 11:47:47;;;;;;;5.00;4.10;;;20.70;1.00;;;;;;5134156;27;20164;-72
2023/05/12 11:50:21;;;;;;;10.98;4.05;;;20.80;1.00;;;;;;5135512;27;20178;-72
2023/05/12 11:52:47;;;;;;;4.57;3.63;;;20.90;1.00;;;;;;5134323;27;20581;-72
2023/05/12 11:55:20;;;;;;;4.68;3.78;;;21.00;1.00;;;;;;5134405;27;20175;-72
2023/05/12 11:57:55;;;;;;;3.63;3.30;;;21.20;1.00;;;;;;5135667;27;20239;-72
2023/05/12 12:00:31;;;;;;;4.28;3.05;;;21.10;1.00;;;;;;5135907;27;20673;-72
2023/05/12 12:03:10;;;;;;;9.98;3.70;;;21.00;99.90;;;;;;5134080;27;20226;-72
2023/05/12 12:05:36;;;;;;;4.28;3.38;;;21.00;99.90;;;;;;5134145;27;20180;-72
2023/05/12 12:08:13;;;;;;;3.35;3.03;;;21.10;99.90;;;;;;5135254;27;20536;-72
2023/05/12 12:10:44;;;;;;;5.93;3.40;;;21.10;1.00;;;;;;5135859;27;20203;-72
2023/05/12 12:13:10;;;;;;;4.93;3.47;;;21.30;99.90;;;;;;5135218;27;20199;-72
2023/05/12 12:15:36;;;;;;;3.85;3.25;;;21.50;99.90;;;;;;5135654;27;20214;-72
2023/05/12 12:18:02;;;;;;;4.45;3.58;;;21.50;99.90;;;;;;5135181;27;20203;-73
2023/05/12 12:20:28;;;;;;;3.47;3.13;;;21.50;1.00;;;;;;5134524;27;20187;-72
2023/05/12 12:22:54;;;;;;;4.88;3.40;;;21.60;99.90;;;;;;5133768;27;20192;-73
2023/05/12 12:25:20;;;;;;;6.35;3.58;;;21.60;99.90;;;;;;5133659;27;20183;-72
2023/05/12 12:27:47;;;;;;;5.57;3.05;;;21.40;99.90;;;;;;5134833;27;20221;-72
2023/05/12 12:30:14;;;;;;;5.55;3.80;;;21.30;99.90;;;;;;5134817;27;20179;-72
2023/05/12 12:32:40;;;;;;;3.95;3.55;;;21.40;1.00;;;;;;5133627;27;20618;-72
2023/05/12 12:35:06;;;;;;;5.30;3.00;;;21.50;99.90;;;;;;5133566;27;20183;-72
2023/05/12 12:37:32;;;;;;;7.30;3.78;;;21.50;1.00;;;;;;5134618;27;20168;-71
2023/05/12 12:40:05;;;;;;;5.13;3.63;;;21.60;99.90;;;;;;5134782;27;20588;-71
2023/05/12 12:42:31;;;;;;;5.20;3.83;;;21.60;1.00;;;;;;5134827;27;20192;-71
2023/05/12 12:44:57;;;;;;;3.85;3.10;;;21.70;99.90;;;;;;5135141;27;20251;-71